Time;durP1;ratioP1;P1;durP2;ratioP2;P2;SDS_P1;SDS_P2;PMS_P1;PMS_P2;Temp;Humidity;BMP_temperature;BMP_pressure;BME280_temperature;BME280_humidity;BME280_pressure;Samples;Min_cycle;Max_cycle;Signal;HPM_P1;HPM_P2
2023/10/28 00:01:12;;;;;;;1.38;1.25;;;;;;;;;;6136049;23;20018;-81
2023/10/28 00:03:39;;;;;;;0.85;0.73;;;;;;;;;;6109666;23;20348;-81
2023/10/28 00:06:08;;;;;;;0.60;0.47;;;;;;;;;;6110141;23;20025;-81
2023/10/28 00:08:37;;;;;;;0.55;0.52;;;;;;;;;;6109110;23;20044;-81
2023/10/28 00:11:04;;;;;;;1.10;0.70;;;;;;;;;;6134892;23;20024;-82
2023/10/28 00:13:34;;;;;;;2.33;0.70;;;;;;;;;;6107683;23;20018;-81
2023/10/28 00:16:01;;;;;;;0.70;0.52;;;;;;;;;;6108937;23;20025;-81
2023/10/28 00:18:31;;;;;;;1.33;0.85;;;;;;;;;;6108622;23;20033;-82
2023/10/28 00:21:00;;;;;;;0.45;0.45;;;;;;;;;;6135360;23;20026;-82
2023/10/28 00:23:31;;;;;;;0.80;0.68;;;;;;;;;;6109419;23;20018;-82
2023/10/28 00:26:05;;;;;;;0.55;0.55;;;;;;;;;;6118608;23;20026;-82
2023/10/28 00:28:35;;;;;;;0.70;0.70;;;;;;;;;;6108721;23;20014;-82
2023/10/28 00:31:03;;;;;;;1.90;1.10;;;;;;;;;;6085328;23;20029;-81
2023/10/28 00:33:36;;;;;;;1.33;0.60;;;;;;;;;;6085020;23;20025;-81
2023/10/28 00:36:09;;;;;;;0.80;0.70;;;;;;;;;;6134070;23;20018;-82
2023/10/28 00:38:36;;;;;;;0.53;0.50;;;;;;;;;;6119413;23;20014;-82
2023/10/28 00:41:09;;;;;;;1.88;0.65;;;;;;;;;;6136819;23;20357;-81
2023/10/28 00:43:37;;;;;;;0.93;0.65;;;;;;;;;;6109658;23;20014;-81
2023/10/28 00:46:07;;;;;;;0.60;0.60;;;;;;;;;;6086156;23;20022;-81
2023/10/28 00:48:34;;;;;;;1.70;1.20;;;;;;;;;;6108619;23;20014;-81
2023/10/28 00:51:02;;;;;;;2.03;0.70;;;;;;;;;;6085185;23;20018;-82
2023/10/28 00:53:30;;;;;;;1.25;0.70;;;;;;;;;;6132547;23;20024;-81
2023/10/28 00:55:59;;;;;;;1.38;0.82;;;;;;;;;;6108896;23;20026;-81
2023/10/28 00:58:34;;;;;;;1.58;0.82;;;;;;;;;;6120208;23;20022;-81
2023/10/28 01:01:01;;;;;;;0.90;0.77;;;;;;;;;;6132508;23;20040;-82
2023/10/28 01:03:30;;;;;;;0.50;0.50;;;;;;;;;;6081087;23;20021;-82
2023/10/28 01:06:00;;;;;;;1.63;0.50;;;;;;;;;;6082742;23;20036;-81
2023/10/28 01:08:30;;;;;;;0.73;0.60;;;;;;;;;;6082487;23;20017;-81
2023/10/28 01:11:00;;;;;;;1.58;0.73;;;;;;;;;;6131234;23;20029;-82
2023/10/28 01:16:27;;;;;;;0.82;0.75;;;;;;;;;;6051460;23;20022;-81
2023/10/28 01:18:56;;;;;;;1.42;0.75;;;;;;;;;;6049886;23;20501;-81
2023/10/28 01:21:25;;;;;;;0.80;0.80;;;;;;;;;;6047698;23;20028;-81
2023/10/28 01:23:52;;;;;;;1.13;0.70;;;;;;;;;;6072509;23;20455;-81
2023/10/28 01:26:20;;;;;;;0.85;0.85;;;;;;;;;;6046096;23;20025;-83
2023/10/28 01:28:47;;;;;;;0.90;0.70;;;;;;;;;;6078146;23;20030;-83
2023/10/28 01:31:18;;;;;;;1.30;1.13;;;;;;;;;;6044327;23;20025;-83
2023/10/28 01:33:48;;;;;;;0.63;0.60;;;;;;;;;;6078173;23;20014;-83
2023/10/28 01:36:16;;;;;;;0.80;0.77;;;;;;;;;;6068692;23;20470;-83
2023/10/28 01:38:47;;;;;;;1.20;1.02;;;;;;;;;;6077331;23;20029;-83
2023/10/28 01:41:18;;;;;;;1.50;1.10;;;;;;;;;;6044381;23;20018;-84
2023/10/28 01:43:47;;;;;;;1.63;1.00;;;;;;;;;;6067938;23;20038;-83
2023/10/28 01:46:16;;;;;;;1.27;0.90;;;;;;;;;;6094594;23;20019;-83
2023/10/28 01:48:45;;;;;;;1.10;1.00;;;;;;;;;;6068266;23;20359;-83
2023/10/28 01:51:15;;;;;;;1.63;1.30;;;;;;;;;;6044579;23;20025;-83
2023/10/28 01:53:46;;;;;;;1.20;1.10;;;;;;;;;;6103607;23;20351;-84
2023/10/28 01:56:15;;;;;;;1.77;1.42;;;;;;;;;;6044693;23;20490;-84
2023/10/28 01:58:44;;;;;;;1.80;1.35;;;;;;;;;;6044398;23;20029;-83
2023/10/28 02:01:12;;;;;;;1.80;1.30;;;;;;;;;;6068104;23;20021;-83
2023/10/28 02:03:39;;;;;;;2.13;1.15;;;;;;;;;;6068442;23;20391;-83
2023/10/28 02:06:09;;;;;;;6.03;1.40;;;;;;;;;;6043995;23;20037;-83
2023/10/28 02:08:36;;;;;;;2.60;1.30;;;;;;;;;;6068476;23;20362;-83
2023/10/28 02:11:03;;;;;;;1.02;0.80;;;;;;;;;;6043562;23;20061;-83
2023/10/28 02:13:39;;;;;;;2.15;1.30;;;;;;;;;;6068606;23;20030;-83
2023/10/28 02:16:07;;;;;;;1.40;0.88;;;;;;;;;;6091410;23;20042;-83
2023/10/28 02:18:36;;;;;;;4.07;1.05;;;;;;;;;;6068387;23;20029;-83
2023/10/28 02:21:06;;;;;;;1.02;0.80;;;;;;;;;;6088971;23;20372;-84
2023/10/28 02:23:33;;;;;;;1.30;1.00;;;;;;;;;;6067561;23;20022;-84
2023/10/28 02:26:00;;;;;;;1.30;0.90;;;;;;;;;;6068148;23;20466;-83
2023/10/28 02:28:30;;;;;;;1.77;1.10;;;;;;;;;;6093815;23;20026;-84
2023/10/28 02:30:59;;;;;;;1.40;1.25;;;;;;;;;;6067104;23;20022;-83
2023/10/28 02:33:26;;;;;;;1.27;0.90;;;;;;;;;;6093968;23;20014;-83
2023/10/28 02:35:54;;;;;;;1.88;1.08;;;;;;;;;;6068168;23;20351;-83
2023/10/28 02:38:23;;;;;;;1.23;1.13;;;;;;;;;;6068039;23;20359;-84
2023/10/28 02:40:50;;;;;;;1.52;1.02;;;;;;;;;;6094057;23;20019;-84
2023/10/28 02:43:17;;;;;;;4.03;1.08;;;;;;;;;;6067645;23;20026;-83
2023/10/28 02:45:45;;;;;;;1.45;0.98;;;;;;;;;;6067707;23;20023;-83
2023/10/28 02:48:13;;;;;;;1.48;1.20;;;;;;;;;;6067652;23;20022;-84
2023/10/28 02:50:41;;;;;;;1.38;0.85;;;;;;;;;;6068284;23;20530;-84
2023/10/28 02:53:10;;;;;;;2.00;0.75;;;;;;;;;;6102936;23;20017;-83
2023/10/28 02:55:43;;;;;;;3.65;1.02;;;;;;;;;;6068740;23;20062;-83
2023/10/28 02:58:11;;;;;;;3.60;0.88;;;;;;;;;;6092531;23;20363;-84
2023/10/28 03:00:38;;;;;;;2.83;0.88;;;;;;;;;;6067873;23;20025;-83
2023/10/28 03:03:05;;;;;;;2.92;1.42;;;;;;;;;;6067552;23;20029;-83
2023/10/28 03:05:33;;;;;;;2.47;1.30;;;;;;;;;;6091811;23;20018;-83
2023/10/28 03:08:01;;;;;;;3.15;1.33;;;;;;;;;;6115480;23;20022;-83
2023/10/28 03:10:31;;;;;;;2.47;1.10;;;;;;;;;;6067915;23;20030;-84
2023/10/28 03:12:58;;;;;;;1.25;1.00;;;;;;;;;;6067738;23;20022;-84
2023/10/28 03:15:27;;;;;;;1.67;1.38;;;;;;;;;;6091454;23;20018;-84
2023/10/28 03:17:57;;;;;;;1.95;1.30;;;;;;;;;;6093089;23;20022;-84
2023/10/28 03:20:26;;;;;;;4.15;1.42;;;;;;;;;;6066891;23;20022;-84
2023/10/28 03:22:55;;;;;;;1.92;1.23;;;;;;;;;;6067345;23;20026;-84
2023/10/28 03:25:27;;;;;;;1.95;1.20;;;;;;;;;;6091572;23;20033;-84
2023/10/28 03:27:54;;;;;;;1.77;1.10;;;;;;;;;;6067739;23;20463;-84
2023/10/28 03:30:26;;;;;;;1.40;0.98;;;;;;;;;;6067932;23;20050;-84
2023/10/28 03:32:53;;;;;;;3.03;1.83;;;;;;;;;;6066597;23;20018;-85
2023/10/28 03:35:20;;;;;;;2.67;1.55;;;;;;;;;;6091717;23;20340;-84
2023/10/28 03:37:50;;;;;;;2.97;1.42;;;;;;;;;;6067449;23;20030;-84
2023/10/28 03:40:18;;;;;;;5.97;1.42;;;;;;;;;;6097120;23;20566;-84
2023/10/28 03:42:46;;;;;;;2.28;1.83;;;;;;;;;;6092695;23;20022;-84
2023/10/28 03:45:17;;;;;;;2.28;1.50;;;;;;;;;;6103700;23;20351;-84
2023/10/28 03:47:44;;;;;;;2.72;1.27;;;;;;;;;;6094944;23;20021;-84
2023/10/28 03:50:12;;;;;;;3.72;1.48;;;;;;;;;;6069083;23;20481;-84
2023/10/28 03:52:41;;;;;;;3.10;1.48;;;;;;;;;;6092951;23;20022;-84
2023/10/28 03:55:09;;;;;;;1.77;0.90;;;;;;;;;;6093250;23;20493;-83
2023/10/28 03:57:37;;;;;;;2.58;1.27;;;;;;;;;;6093923;23;20022;-83
2023/10/28 04:00:10;;;;;;;1.52;1.35;;;;;;;;;;6092452;23;20025;-84
2023/10/28 04:02:41;;;;;;;1.50;0.95;;;;;;;;;;6104757;23;20025;-84
2023/10/28 04:05:08;;;;;;;1.75;0.88;;;;;;;;;;6092921;23;20023;-84
2023/10/28 04:07:37;;;;;;;2.80;1.52;;;;;;;;;;6093266;23;20014;-84
2023/10/28 04:10:08;;;;;;;2.42;1.35;;;;;;;;;;6068651;23;20493;-84
2023/10/28 04:12:39;;;;;;;6.57;1.38;;;;;;;;;;6094632;23;20038;-84
2023/10/28 04:15:08;;;;;;;4.78;1.95;;;;;;;;;;6117578;23;20026;-84
2023/10/28 04:17:36;;;;;;;3.67;1.33;;;;;;;;;;6092793;23;20550;-84
2023/10/28 04:20:04;;;;;;;1.77;1.35;;;;;;;;;;6068983;23;20018;-84
2023/10/28 04:22:36;;;;;;;2.13;0.93;;;;;;;;;;6102539;23;20505;-84
2023/10/28 04:25:03;;;;;;;2.92;1.27;;;;;;;;;;6068708;23;20018;-84
2023/10/28 04:27:32;;;;;;;3.83;1.23;;;;;;;;;;6093494;23;20022;-84
2023/10/28 04:30:03;;;;;;;4.70;1.50;;;;;;;;;;6092864;23;20022;-84
2023/10/28 04:32:31;;;;;;;3.60;1.63;;;;;;;;;;6103011;23;20639;-84
2023/10/28 04:35:00;;;;;;;4.40;1.30;;;;;;;;;;6093213;23;20451;-84
2023/10/28 04:37:30;;;;;;;2.60;1.13;;;;;;;;;;6093056;23;20018;-84
2023/10/28 04:39:57;;;;;;;1.38;0.90;;;;;;;;;;6068311;23;20018;-84
2023/10/28 04:42:25;;;;;;;3.55;1.75;;;;;;;;;;6068786;23;20033;-84
2023/10/28 04:44:57;;;;;;;5.35;1.40;;;;;;;;;;6102384;23;20029;-85
2023/10/28 04:47:25;;;;;;;1.90;1.42;;;;;;;;;;6068156;23;20030;-84
2023/10/28 04:49:55;;;;;;;2.85;1.65;;;;;;;;;;6099782;23;20037;-84
2023/10/28 04:52:22;;;;;;;3.13;1.50;;;;;;;;;;6068442;23;20018;-84
2023/10/28 04:54:52;;;;;;;2.92;1.27;;;;;;;;;;6093784;23;20014;-84
2023/10/28 04:57:20;;;;;;;2.60;1.10;;;;;;;;;;6115719;23;20023;-85
2023/10/28 04:59:49;;;;;;;2.33;1.23;;;;;;;;;;6093349;23;20018;-85
2023/10/28 05:02:18;;;;;;;2.47;1.58;;;;;;;;;;6102625;23;20014;-84
2023/10/28 05:04:47;;;;;;;3.20;2.30;;;;;;;;;;6068078;23;20019;-84
2023/10/28 05:07:14;;;;;;;2.55;1.60;;;;;;;;;;6068859;23;20336;-85
2023/10/28 05:09:41;;;;;;;3.15;2.10;;;;;;;;;;6092704;23;20018;-84
2023/10/28 05:12:11;;;;;;;2.30;1.20;;;;;;;;;;6090665;23;20023;-85
2023/10/28 05:14:38;;;;;;;2.03;1.65;;;;;;;;;;6091820;23;20015;-85
2023/10/28 05:17:06;;;;;;;3.95;2.53;;;;;;;;;;6092273;23;20026;-84
2023/10/28 05:19:33;;;;;;;2.35;1.83;;;;;;;;;;6092270;23;20019;-84
2023/10/28 05:22:03;;;;;;;4.25;2.13;;;;;;;;;;6102233;23;20014;-84
2023/10/28 05:24:33;;;;;;;3.03;1.67;;;;;;;;;;6093204;23;20019;-84
2023/10/28 05:27:00;;;;;;;3.42;2.05;;;;;;;;;;6092010;23;20014;-84
2023/10/28 05:29:27;;;;;;;3.55;1.60;;;;;;;;;;6092370;23;20501;-84
2023/10/28 05:31:56;;;;;;;3.70;1.63;;;;;;;;;;6093298;23;20348;-84
2023/10/28 05:34:26;;;;;;;2.83;1.38;;;;;;;;;;6104743;23;20077;-84
2023/10/28 05:36:53;;;;;;;3.42;1.50;;;;;;;;;;6093548;23;20351;-84
2023/10/28 05:39:22;;;;;;;3.30;1.55;;;;;;;;;;6093148;23;20026;-84
2023/10/28 05:41:51;;;;;;;2.38;1.30;;;;;;;;;;6125106;23;20025;-83
2023/10/28 05:44:23;;;;;;;2.63;1.10;;;;;;;;;;6101524;23;20241;-83
2023/10/28 05:46:55;;;;;;;4.80;1.20;;;;;;;;;;6090671;23;20325;-83
2023/10/28 05:49:22;;;;;;;4.05;1.45;;;;;;;;;;6090631;23;20026;-83
2023/10/28 05:51:49;;;;;;;2.67;1.65;;;;;;;;;;6093086;23;20014;-84
2023/10/28 05:54:17;;;;;;;3.28;1.85;;;;;;;;;;6090224;23;20033;-84
2023/10/28 05:56:47;;;;;;;2.42;1.30;;;;;;;;;;6094363;23;20041;-83
2023/10/28 05:59:15;;;;;;;6.82;1.63;;;;;;;;;;6067891;23;20037;-83
2023/10/28 06:01:44;;;;;;;4.57;2.33;;;;;;;;;;6091326;23;20026;-83
2023/10/28 06:04:14;;;;;;;3.42;2.10;;;;;;;;;;6066848;23;20025;-84
2023/10/28 06:06:41;;;;;;;3.75;1.50;;;;;;;;;;6093642;23;20025;-84
2023/10/28 06:09:09;;;;;;;2.65;1.70;;;;;;;;;;6068021;23;20018;-84
2023/10/28 06:11:39;;;;;;;3.67;1.85;;;;;;;;;;6067507;23;20034;-84
2023/10/28 06:14:08;;;;;;;2.30;1.77;;;;;;;;;;6092148;23;20026;-84
2023/10/28 06:16:35;;;;;;;2.58;1.50;;;;;;;;;;6103559;23;20025;-84
2023/10/28 06:19:03;;;;;;;4.45;1.40;;;;;;;;;;6068112;23;20026;-83
2023/10/28 06:21:30;;;;;;;3.38;1.30;;;;;;;;;;6092694;23;20037;-84
2023/10/28 06:23:57;;;;;;;4.32;1.40;;;;;;;;;;6067064;23;20022;-84
2023/10/28 06:26:24;;;;;;;7.78;1.77;;;;;;;;;;6067783;23;20018;-83
2023/10/28 06:28:59;;;;;;;1.95;1.52;;;;;;;;;;6092195;23;20033;-83
2023/10/28 06:31:29;;;;;;;1.85;1.58;;;;;;;;;;6091990;23;20474;-84
2023/10/28 06:33:57;;;;;;;5.03;1.67;;;;;;;;;;6068082;23;20018;-84
2023/10/28 06:36:26;;;;;;;4.63;3.33;;;;;;;;;;6092596;23;20018;-84
2023/10/28 06:38:56;;;;;;;3.78;2.33;;;;;;;;;;6068263;23;20022;-84
2023/10/28 06:41:26;;;;;;;4.60;2.50;;;;;;;;;;6092553;23;20026;-84
2023/10/28 06:43:53;;;;;;;1.55;1.20;;;;;;;;;;6090443;23;20551;-84
2023/10/28 06:46:25;;;;;;;4.78;2.00;;;;;;;;;;6066522;23;20018;-84
2023/10/28 06:48:57;;;;;;;2.63;1.48;;;;;;;;;;6093353;23;20105;-84
2023/10/28 06:51:26;;;;;;;5.60;2.20;;;;;;;;;;6091496;23;20033;-84
2023/10/28 06:53:55;;;;;;;1.92;1.60;;;;;;;;;;6067409;23;20018;-84
2023/10/28 06:56:25;;;;;;;3.50;1.80;;;;;;;;;;6093237;23;20011;-84
2023/10/28 06:58:52;;;;;;;4.85;2.15;;;;;;;;;;6066969;23;20493;-84
2023/10/28 07:01:19;;;;;;;3.47;2.15;;;;;;;;;;6091635;23;20026;-84
2023/10/28 07:03:47;;;;;;;3.13;2.05;;;;;;;;;;6068034;23;20067;-84
2023/10/28 07:06:18;;;;;;;4.20;1.60;;;;;;;;;;6089929;23;20026;-84
2023/10/28 07:08:48;;;;;;;4.78;1.98;;;;;;;;;;6102417;23;20025;-84
2023/10/28 07:11:15;;;;;;;2.65;1.77;;;;;;;;;;6093056;23;20018;-84
2023/10/28 07:13:43;;;;;;;8.43;2.08;;;;;;;;;;6078619;23;20022;-81
2023/10/28 07:16:10;;;;;;;6.03;1.58;;;;;;;;;;6102417;23;20022;-81
2023/10/28 07:18:40;;;;;;;3.75;1.38;;;;;;;;;;6138181;23;20025;-81
2023/10/28 07:21:07;;;;;;;3.50;1.73;;;;;;;;;;6128184;23;20017;-81
2023/10/28 07:23:36;;;;;;;2.90;1.63;;;;;;;;;;6129963;23;20022;-81
2023/10/28 07:26:05;;;;;;;2.80;1.73;;;;;;;;;;6133809;23;20029;-81
2023/10/28 07:28:33;;;;;;;2.75;1.95;;;;;;;;;;6133073;23;20020;-81
2023/10/28 07:31:01;;;;;;;3.60;1.95;;;;;;;;;;6141802;23;20024;-84
2023/10/28 07:33:29;;;;;;;6.97;2.35;;;;;;;;;;6134970;23;20135;-82
2023/10/28 07:36:02;;;;;;;4.03;2.20;;;;;;;;;;6137390;23;20017;-83
2023/10/28 07:38:29;;;;;;;4.55;2.00;;;;;;;;;;6168491;23;20021;-83
2023/10/28 07:40:58;;;;;;;4.53;2.75;;;;;;;;;;6136162;23;20022;-81
2023/10/28 07:43:26;;;;;;;4.78;2.08;;;;;;;;;;6137689;23;20022;-81
2023/10/28 07:45:53;;;;;;;3.88;2.17;;;;;;;;;;6133722;23;20018;-81
2023/10/28 07:48:21;;;;;;;5.60;1.98;;;;;;;;;;6134183;23;20018;-81
2023/10/28 07:50:51;;;;;;;4.15;1.63;;;;;;;;;;6133486;23;20028;-81
2023/10/28 07:53:18;;;;;;;5.40;1.95;;;;;;;;;;6133522;23;20022;-83
2023/10/28 07:55:45;;;;;;;3.33;1.42;;;;;;;;;;6134633;23;20020;-81
2023/10/28 07:58:16;;;;;;;4.07;1.27;;;;;;;;;;6131872;23;20018;-81
2023/10/28 08:00:46;;;;;;;3.05;1.40;;;;;;;;;;6137880;23;20017;-81
2023/10/28 08:03:13;;;;;;;3.05;1.20;;;;;;;;;;6133685;23;20025;-81
2023/10/28 08:05:40;;;;;;;1.98;1.48;;;;;;;;;;6131778;23;20017;-81
2023/10/28 08:08:10;;;;;;;2.58;1.02;;;;;;;;;;6132472;23;20018;-81
2023/10/28 08:10:40;;;;;;;1.92;1.20;;;;;;;;;;6108051;23;20022;-81
2023/10/28 08:13:08;;;;;;;0.68;0.68;;;;;;;;;;6133595;23;20018;-81
2023/10/28 08:15:39;;;;;;;3.05;1.10;;;;;;;;;;6133328;23;20465;-81
2023/10/28 08:18:07;;;;;;;2.72;1.00;;;;;;;;;;6131639;23;20040;-81
2023/10/28 08:20:34;;;;;;;4.63;1.30;;;;;;;;;;6133871;23;20014;-82
2023/10/28 08:23:01;;;;;;;3.50;1.20;;;;;;;;;;6111720;23;20026;-82
2023/10/28 08:25:28;;;;;;;1.35;1.15;;;;;;;;;;6112084;23;20026;-81
2023/10/28 08:27:58;;;;;;;3.35;1.35;;;;;;;;;;6112979;23;20024;-81
2023/10/28 08:30:26;;;;;;;4.38;2.15;;;;;;;;;;6110032;23;20033;-81
2023/10/28 08:32:55;;;;;;;2.72;1.30;;;;;;;;;;6133786;23;20052;-81
2023/10/28 08:35:28;;;;;;;7.88;6.65;;;;;;;;;;6142139;23;20032;-81
2023/10/28 08:37:55;;;;;;;5.45;3.63;;;;;;;;;;6133246;23;20346;-81
2023/10/28 08:40:22;;;;;;;3.72;2.22;;;;;;;;;;6136601;23;20036;-81
2023/10/28 08:42:50;;;;;;;2.30;1.73;;;;;;;;;;6132501;23;20354;-81
2023/10/28 08:45:19;;;;;;;5.88;1.55;;;;;;;;;;6133145;23;20343;-81
2023/10/28 08:47:47;;;;;;;4.03;2.08;;;;;;;;;;6132247;23;20025;-81
2023/10/28 08:50:18;;;;;;;4.05;1.63;;;;;;;;;;6133394;23;20290;-81
2023/10/28 08:52:47;;;;;;;2.38;2.13;;;;;;;;;;6133142;23;20036;-81
2023/10/28 08:55:14;;;;;;;3.08;2.30;;;;;;;;;;6133421;23;20018;-81
2023/10/28 08:57:43;;;;;;;2.47;2.20;;;;;;;;;;6134881;23;20014;-81
2023/10/28 09:00:15;;;;;;;5.03;2.55;;;;;;;;;;6141858;23;20014;-81
2023/10/28 09:02:50;;;;;;;4.28;2.30;;;;;;;;;;6146854;23;20022;-81
2023/10/28 09:05:19;;;;;;;3.47;2.08;;;;;;;;;;6135354;23;20025;-81
2023/10/28 09:07:47;;;;;;;5.53;3.25;;;;;;;;;;6133297;23;20025;-81
2023/10/28 09:10:16;;;;;;;2.30;1.83;;;;;;;;;;6131831;23;20021;-81
2023/10/28 09:12:44;;;;;;;3.50;2.03;;;;;;;;;;6133307;23;20036;-81
2023/10/28 09:15:12;;;;;;;3.85;1.90;;;;;;;;;;6133023;23;20036;-81
2023/10/28 09:17:40;;;;;;;3.45;2.38;;;;;;;;;;6111407;23;20328;-81
2023/10/28 09:20:11;;;;;;;3.60;1.63;;;;;;;;;;6134961;23;20018;-82
2023/10/28 09:22:43;;;;;;;3.35;2.00;;;;;;;;;;6134866;23;20044;-81
2023/10/28 09:25:10;;;;;;;3.35;2.17;;;;;;;;;;6134873;23;20026;-81
2023/10/28 09:27:38;;;;;;;4.20;1.98;;;;;;;;;;6135717;23;20022;-82
2023/10/28 09:30:08;;;;;;;4.65;1.85;;;;;;;;;;6110072;23;20029;-82
2023/10/28 09:32:41;;;;;;;3.38;1.58;;;;;;;;;;6143533;23;20024;-82
2023/10/28 09:35:11;;;;;;;4.55;1.48;;;;;;;;;;6133729;23;20025;-82
2023/10/28 09:37:40;;;;;;;2.67;1.55;;;;;;;;;;6133362;23;20014;-82
2023/10/28 09:40:12;;;;;;;2.03;1.50;;;;;;;;;;6138461;23;20029;-82
2023/10/28 09:42:43;;;;;;;4.47;1.73;;;;;;;;;;6144509;23;20318;-81
2023/10/28 09:45:12;;;;;;;1.55;1.10;;;;;;;;;;6144688;23;20025;-81
2023/10/28 09:47:52;;;;;;;4.13;2.20;;;;;;;;;;6108391;23;20025;-82
2023/10/28 09:50:22;;;;;;;7.63;2.08;;;;;;;;;;6104799;23;20022;-80
2023/10/28 09:52:55;;;;;;;2.22;1.23;;;;;;;;;;6142115;23;20071;-81
2023/10/28 09:55:27;;;;;;;3.10;1.40;;;;;;;;;;6132317;23;20032;-81
2023/10/28 09:58:03;;;;;;;2.75;1.38;;;;;;;;;;6140532;23;20020;-81
2023/10/28 10:00:32;;;;;;;3.22;1.25;;;;;;;;;;6134952;23;20024;-81
2023/10/28 10:03:10;;;;;;;2.28;1.52;;;;;;;;;;6141208;23;20354;-81
2023/10/28 10:05:41;;;;;;;1.52;1.00;;;;;;;;;;6108461;23;20026;-81
2023/10/28 10:08:22;;;;;;;3.83;0.95;;;;;;;;;;6131409;23;20454;-81
2023/10/28 10:10:53;;;;;;;2.70;1.17;;;;;;;;;;6131990;23;20022;-81
2023/10/28 10:13:21;;;;;;;3.47;1.30;;;;;;;;;;6141104;23;20014;-81
2023/10/28 10:15:55;;;;;;;4.65;0.90;;;;;;;;;;6132944;23;20029;-81
2023/10/28 10:18:31;;;;;;;3.55;1.05;;;;;;;;;;6131618;23;20017;-81
2023/10/28 10:21:06;;;;;;;2.90;1.00;;;;;;;;;;6135918;23;20024;-81
2023/10/28 10:23:43;;;;;;;4.78;1.70;;;;;;;;;;6144304;23;20018;-81
2023/10/28 10:26:21;;;;;;;1.98;1.50;;;;;;;;;;6132296;23;20458;-81
2023/10/28 10:28:53;;;;;;;2.33;1.27;;;;;;;;;;6132652;23;20024;-81
2023/10/28 10:31:23;;;;;;;3.80;1.20;;;;;;;;;;6107241;23;20029;-81
2023/10/28 10:34:02;;;;;;;1.63;1.15;;;;;;;;;;6133241;23;20010;-81
2023/10/28 10:36:30;;;;;;;3.30;1.38;;;;;;;;;;6132376;23;20044;-81
2023/10/28 10:39:14;;;;;;;3.88;1.35;;;;;;;;;;6132313;23;20082;-81
2023/10/28 10:41:49;;;;;;;4.30;1.35;;;;;;;;;;6142020;23;20353;-81
2023/10/28 10:44:26;;;;;;;2.55;1.40;;;;;;;;;;6132314;23;20022;-81
2023/10/28 10:46:56;;;;;;;5.07;1.30;;;;;;;;;;6131185;23;20014;-81
2023/10/28 10:49:23;;;;;;;1.63;1.00;;;;;;;;;;6131641;23;20025;-81
2023/10/28 10:51:50;;;;;;;3.42;1.75;;;;;;;;;;6131406;23;20545;-81
2023/10/28 10:54:19;;;;;;;2.15;1.20;;;;;;;;;;6135210;23;20026;-81
2023/10/28 10:56:49;;;;;;;3.42;1.15;;;;;;;;;;6144812;23;20028;-81
2023/10/28 10:59:17;;;;;;;4.82;2.25;;;;;;;;;;6135297;23;20227;-81
2023/10/28 11:01:46;;;;;;;1.48;0.93;;;;;;;;;;6132979;23;20022;-81
2023/10/28 11:04:13;;;;;;;4.53;2.05;;;;;;;;;;6109376;23;20022;-81
2023/10/28 11:06:43;;;;;;;3.08;1.45;;;;;;;;;;6133555;23;20033;-81
2023/10/28 11:09:14;;;;;;;1.95;1.20;;;;;;;;;;6134254;23;20022;-82
2023/10/28 11:11:45;;;;;;;3.15;1.60;;;;;;;;;;6144433;23;20552;-81
2023/10/28 11:14:13;;;;;;;2.60;1.08;;;;;;;;;;6134459;23;20018;-81
2023/10/28 11:16:44;;;;;;;2.65;1.63;;;;;;;;;;6135873;23;20040;-81
2023/10/28 11:19:16;;;;;;;2.53;1.30;;;;;;;;;;6143851;23;20325;-82
2023/10/28 11:21:44;;;;;;;3.17;1.02;;;;;;;;;;6132376;23;20022;-81
2023/10/28 11:24:12;;;;;;;2.90;1.75;;;;;;;;;;6135118;23;20414;-81
2023/10/28 11:26:47;;;;;;;3.42;2.05;;;;;;;;;;6144078;23;20022;-81
2023/10/28 11:29:16;;;;;;;3.35;1.73;;;;;;;;;;6142527;23;20066;-82
2023/10/28 11:31:46;;;;;;;4.53;1.30;;;;;;;;;;6132312;23;20030;-81
2023/10/28 11:34:14;;;;;;;3.08;1.20;;;;;;;;;;6133094;23;20346;-81
2023/10/28 11:36:42;;;;;;;1.15;0.80;;;;;;;;;;6142019;23;20028;-81
2023/10/28 11:39:12;;;;;;;4.82;1.45;;;;;;;;;;6107660;23;20025;-81
2023/10/28 11:41:43;;;;;;;3.05;1.52;;;;;;;;;;6142705;23;20028;-81
2023/10/28 11:44:12;;;;;;;2.50;1.48;;;;;;;;;;6134455;23;20324;-81
2023/10/28 11:46:43;;;;;;;2.33;1.10;;;;;;;;;;6111973;23;20022;-81
2023/10/28 11:49:10;;;;;;;3.65;2.15;;;;;;;;;;6139851;23;20014;-82
2023/10/28 11:51:40;;;;;;;2.90;1.95;;;;;;;;;;6136368;23;20026;-81
2023/10/28 11:54:07;;;;;;;2.72;1.20;;;;;;;;;;6133181;23;20022;-81
2023/10/28 11:56:36;;;;;;;3.25;1.40;;;;;;;;;;6134773;23;20040;-81
2023/10/28 11:59:07;;;;;;;2.97;1.20;;;;;;;;;;6135257;23;20010;-81
2023/10/28 12:01:36;;;;;;;2.13;1.30;;;;;;;;;;6132256;23;20028;-81
2023/10/28 12:04:04;;;;;;;3.38;1.40;;;;;;;;;;6130810;23;20366;-81
2023/10/28 12:06:33;;;;;;;2.15;1.35;;;;;;;;;;6130904;23;20021;-81
2023/10/28 12:09:04;;;;;;;2.83;1.55;;;;;;;;;;6131344;23;20020;-81
2023/10/28 12:11:32;;;;;;;5.82;1.60;;;;;;;;;;6144453;23;20510;-81
2023/10/28 12:13:59;;;;;;;4.68;1.75;;;;;;;;;;6133411;23;20022;-81
2023/10/28 12:16:29;;;;;;;5.75;2.15;;;;;;;;;;6135907;23;20031;-81
2023/10/28 12:18:57;;;;;;;4.22;1.50;;;;;;;;;;6113951;23;20425;-81
2023/10/28 12:21:25;;;;;;;1.90;1.27;;;;;;;;;;6135176;23;20022;-81
2023/10/28 12:23:52;;;;;;;7.68;2.40;;;;;;;;;;6134777;23;20024;-81
2023/10/28 12:26:19;;;;;;;7.35;2.38;;;;;;;;;;6133627;23;20026;-81
2023/10/28 12:28:48;;;;;;;4.38;1.55;;;;;;;;;;6134204;23;20014;-81
2023/10/28 12:31:18;;;;;;;4.35;1.50;;;;;;;;;;6108545;23;20024;-81
2023/10/28 12:33:45;;;;;;;4.50;1.70;;;;;;;;;;6133219;23;20014;-81
2023/10/28 12:36:17;;;;;;;3.97;2.10;;;;;;;;;;6133327;23;20024;-82
2023/10/28 12:38:45;;;;;;;5.05;2.25;;;;;;;;;;6134393;23;20018;-82
2023/10/28 12:41:14;;;;;;;4.47;2.17;;;;;;;;;;6133789;23;20029;-82
2023/10/28 12:43:44;;;;;;;3.83;2.20;;;;;;;;;;6135371;23;20018;-82
2023/10/28 12:46:18;;;;;;;4.75;2.20;;;;;;;;;;6148078;23;20032;-82
2023/10/28 12:48:46;;;;;;;3.63;1.40;;;;;;;;;;6135376;23;20013;-82
2023/10/28 12:51:14;;;;;;;2.97;1.88;;;;;;;;;;6110365;23;20022;-82
2023/10/28 12:53:45;;;;;;;5.43;1.63;;;;;;;;;;6134156;23;20028;-81
2023/10/28 12:56:13;;;;;;;2.55;1.52;;;;;;;;;;6138101;23;20025;-81
2023/10/28 12:58:40;;;;;;;4.78;2.67;;;;;;;;;;6136969;23;20032;-81
2023/10/28 13:01:07;;;;;;;7.18;3.28;;;;;;;;;;6135426;23;20028;-81
2023/10/28 13:03:35;;;;;;;7.97;5.03;;;;;;;;;;6135824;23;20026;-81
2023/10/28 13:06:05;;;;;;;4.10;3.15;;;;;;;;;;6135748;23;20022;-81
2023/10/28 13:08:32;;;;;;;6.72;3.55;;;;;;;;;;6137228;23;20014;-81
2023/10/28 13:11:01;;;;;;;7.25;2.50;;;;;;;;;;6111246;23;20028;-81
2023/10/28 13:13:52;;;;;;;2.95;1.55;;;;;;;;;;6105232;23;20022;-81
2023/10/28 13:16:19;;;;;;;8.13;2.63;;;;;;;;;;6099540;23;20026;-81
2023/10/28 13:18:46;;;;;;;9.57;3.42;;;;;;;;;;6073467;23;20018;-80
2023/10/28 13:21:16;;;;;;;4.45;3.05;;;;;;;;;;6099098;23;20368;-79
2023/10/28 13:23:45;;;;;;;3.65;2.80;;;;;;;;;;6106586;23;20455;-79
2023/10/28 13:26:16;;;;;;;4.60;1.75;;;;;;;;;;6046358;23;20356;-79
2023/10/28 13:28:49;;;;;;;10.38;2.25;;;;;;;;;;6099284;23;20017;-80
2023/10/28 13:31:23;;;;;;;3.60;1.83;;;;;;;;;;6077298;23;20033;-80
2023/10/28 13:33:52;;;;;;;4.97;2.10;;;;;;;;;;6050923;23;20022;-80
2023/10/28 13:36:20;;;;;;;5.82;2.53;;;;;;;;;;6076295;23;20320;-80
2023/10/28 13:38:49;;;;;;;2.22;1.40;;;;;;;;;;6077060;23;20021;-80
2023/10/28 13:41:17;;;;;;;5.70;2.40;;;;;;;;;;6077566;23;20029;-80
2023/10/28 13:43:47;;;;;;;2.28;2.08;;;;;;;;;;6111746;23;20025;-80
2023/10/28 13:46:14;;;;;;;8.75;3.42;;;;;;;;;;6102446;23;20018;-80
2023/10/28 13:48:43;;;;;;;6.22;3.35;;;;;;;;;;6053949;23;20030;-81
2023/10/28 13:51:11;;;;;;;6.70;6.10;;;;;;;;;;6076844;23;20018;-80
2023/10/28 13:53:40;;;;;;;3.97;3.03;;;;;;;;;;6054042;23;20079;-80
2023/10/28 13:56:07;;;;;;;6.60;3.70;;;;;;;;;;6056122;23;20806;-81
2023/10/28 13:58:36;;;;;;;4.07;2.05;;;;;;;;;;6055800;23;20034;-81
2023/10/28 14:01:04;;;;;;;4.93;4.47;;;;;;;;;;6078655;23;20018;-81
2023/10/28 14:03:32;;;;;;;4.95;2.80;;;;;;;;;;6055662;23;20026;-81
2023/10/28 14:06:04;;;;;;;5.40;3.50;;;;;;;;;;6053735;23;20028;-81
2023/10/28 14:08:34;;;;;;;3.45;2.17;;;;;;;;;;6104838;23;20017;-81
2023/10/28 14:11:01;;;;;;;4.65;2.80;;;;;;;;;;6054503;23;20022;-82
2023/10/28 14:13:31;;;;;;;7.88;4.43;;;;;;;;;;6078422;23;20354;-82
2023/10/28 14:16:00;;;;;;;5.80;3.80;;;;;;;;;;6074417;23;20018;-82
2023/10/28 14:18:29;;;;;;;3.50;3.13;;;;;;;;;;6049080;23;20019;-82
2023/10/28 14:21:01;;;;;;;4.72;3.92;;;;;;;;;;6072410;23;20076;-82
2023/10/28 14:23:31;;;;;;;6.32;3.92;;;;;;;;;;6073719;23;20025;-82
2023/10/28 14:25:58;;;;;;;6.35;4.40;;;;;;;;;;6049096;23;20025;-82
2023/10/28 14:28:28;;;;;;;7.70;4.70;;;;;;;;;;6084328;23;20025;-81
2023/10/28 14:30:57;;;;;;;5.32;3.53;;;;;;;;;;6070411;23;20033;-82
2023/10/28 14:33:26;;;;;;;8.82;4.88;;;;;;;;;;6072902;23;20029;-82
2023/10/28 14:35:56;;;;;;;8.30;4.03;;;;;;;;;;6049929;23;20053;-82
2023/10/28 14:38:25;;;;;;;7.65;6.25;;;;;;;;;;6072791;23;20033;-82
2023/10/28 14:40:55;;;;;;;6.70;4.10;;;;;;;;;;6047866;23;20026;-82
2023/10/28 14:43:23;;;;;;;5.32;2.72;;;;;;;;;;6072038;23;20022;-82
2023/10/28 14:45:52;;;;;;;4.55;1.92;;;;;;;;;;6075058;23;20019;-82
2023/10/28 14:48:22;;;;;;;3.13;1.60;;;;;;;;;;6073281;23;20023;-82
2023/10/28 14:50:56;;;;;;;3.10;1.95;;;;;;;;;;6074215;23;20373;-82
2023/10/28 14:53:23;;;;;;;4.30;3.88;;;;;;;;;;6082980;23;20364;-82
2023/10/28 14:55:53;;;;;;;9.02;5.65;;;;;;;;;;6049216;23;20019;-82
2023/10/28 14:58:20;;;;;;;7.25;4.30;;;;;;;;;;6049279;23;20019;-82